createdAt,value
2022-12-22T00:01:06.902Z,99947.97
2022-12-22T00:03:58.353Z,99952.59
2022-12-22T00:06:53.330Z,99960.56
2022-12-22T00:09:48.259Z,99963.63
2022-12-22T00:12:40.651Z,99951.97
2022-12-22T00:15:38.549Z,99960.44
2022-12-22T00:18:40.726Z,99955.25
2022-12-22T00:21:37.202Z,99953.97
2022-12-22T00:24:30.792Z,99940.75
2022-12-22T00:27:27.803Z,99946.22
2022-12-22T00:30:22.233Z,99944.53
2022-12-22T00:33:13.145Z,99950.69
2022-12-22T00:36:05.239Z,99950.84
2022-12-22T00:38:56.607Z,99943.16
2022-12-22T00:41:47.979Z,99946.28
2022-12-22T00:44:44.821Z,99943.84
2022-12-22T00:47:45.771Z,99941.13
2022-12-22T00:50:41.469Z,99942.09
2022-12-22T00:53:35.487Z,99944.47
2022-12-22T00:56:25.513Z,99942.97
2022-12-22T00:59:20.624Z,99951.00
2022-12-22T01:02:14.377Z,99954.63
2022-12-22T01:05:04.171Z,99957.28
2022-12-22T01:07:57.507Z,99951.00
2022-12-22T01:10:46.811Z,99943.22
2022-12-22T01:13:41.057Z,99945.50
2022-12-22T01:16:36.425Z,99941.44
2022-12-22T01:19:31.013Z,99941.56
2022-12-22T01:22:27.820Z,99939.28
2022-12-22T01:25:29.637Z,99945.38
2022-12-22T01:28:25.409Z,99941.06
2022-12-22T01:31:37.029Z,99935.75
2022-12-22T01:34:31.176Z,99930.94
2022-12-22T01:37:30.478Z,99933.34
2022-12-22T01:40:33.173Z,99923.72
2022-12-22T01:43:44.095Z,99927.75
2022-12-22T01:46:41.406Z,99925.38
2022-12-22T01:49:47.427Z,99919.97
2022-12-22T01:52:41.414Z,99921.38
2022-12-22T01:55:32.225Z,99923.56
2022-12-22T01:58:21.228Z,99917.19
2022-12-22T02:01:17.695Z,99912.38
2022-12-22T02:04:15.248Z,99910.09
2022-12-22T02:07:12.487Z,99915.13
2022-12-22T02:10:18.210Z,99904.41
2022-12-22T02:13:44.731Z,99898.19
2022-12-22T02:16:58.311Z,99890.72
2022-12-22T02:20:04.156Z,99888.31
2022-12-22T02:23:20.130Z,99892.94
2022-12-22T02:26:37.197Z,99886.72
2022-12-22T02:29:31.653Z,99880.84
2022-12-22T02:32:23.233Z,99881.31
2022-12-22T02:35:16.548Z,99881.91
2022-12-22T02:38:38.281Z,99883.66
2022-12-22T02:41:48.067Z,99881.38
2022-12-22T02:45:23.424Z,99873.16
2022-12-22T02:48:27.336Z,99881.50
2022-12-22T02:51:29.216Z,99877.78
2022-12-22T02:54:22.365Z,99877.09
2022-12-22T02:57:08.038Z,99878.16
2022-12-22T02:59:56.091Z,99877.09
2022-12-22T03:02:49.454Z,99873.75
2022-12-22T03:05:41.022Z,99870.09
2022-12-22T03:08:37.207Z,99869.78
2022-12-22T03:11:33.757Z,99869.63
2022-12-22T03:14:24.992Z,99868.13
2022-12-22T03:17:13.178Z,99863.31
2022-12-22T03:20:12.323Z,99857.84
2022-12-22T03:23:14.413Z,99862.59
2022-12-22T03:25:53.296Z,99863.19
2022-12-22T03:28:36.868Z,99861.97
2022-12-22T03:31:09.913Z,99859.25
2022-12-22T03:33:47.534Z,99864.59
2022-12-22T03:36:22.618Z,99858.25
2022-12-22T03:38:54.917Z,99853.09
2022-12-22T03:41:48.477Z,99844.53
2022-12-22T03:44:42.523Z,99857.38
2022-12-22T03:47:25.526Z,99841.91
2022-12-22T03:49:57.415Z,99838.63
2022-12-22T03:52:37.991Z,99839.69
2022-12-22T03:55:24.837Z,99842.19
2022-12-22T03:58:02.570Z,99843.28
2022-12-22T04:00:40.806Z,99841.03
2022-12-22T04:03:18.465Z,99844.53
2022-12-22T04:05:53.783Z,99839.06
2022-12-22T04:08:32.202Z,99838.91
2022-12-22T04:11:23.446Z,99847.47
2022-12-22T04:13:57.665Z,99851.00
2022-12-22T04:16:40.787Z,99847.94
2022-12-22T04:19:18.687Z,99852.25
2022-12-22T04:21:51.709Z,99861.03
2022-12-22T04:24:24.425Z,99853.56
2022-12-22T04:26:57.086Z,99843.16
2022-12-22T04:29:37.520Z,99846.84
2022-12-22T04:32:23.855Z,99843.50
2022-12-22T04:34:58.801Z,99852.56
2022-12-22T04:37:34.915Z,99857.75
2022-12-22T04:40:10.135Z,99851.06
2022-12-22T04:42:48.372Z,99854.97
2022-12-22T04:45:30.572Z,99850.81
2022-12-22T04:48:11.949Z,99844.94
2022-12-22T04:50:55.592Z,99848.94
2022-12-22T04:53:34.205Z,99842.97
2022-12-22T04:56:13.712Z,99833.56
2022-12-22T04:58:49.112Z,99828.63
2022-12-22T05:01:32.117Z,99825.63
2022-12-22T05:04:14.469Z,99827.63
2022-12-22T05:07:00.312Z,99831.63
2022-12-22T05:09:44.189Z,99841.69
2022-12-22T05:12:35.247Z,99841.84
2022-12-22T05:15:13.697Z,99849.94
2022-12-22T05:17:49.543Z,99852.25
2022-12-22T05:20:27.395Z,99847.47
2022-12-22T05:23:08.859Z,99852.25
2022-12-22T05:25:40.965Z,99854.63
2022-12-22T05:28:19.116Z,99861.75
2022-12-22T05:30:59.936Z,99868.22
2022-12-22T05:33:45.070Z,99863.44
2022-12-22T05:36:30.899Z,99864.59
2022-12-22T05:39:17.428Z,99853.63
2022-12-22T05:41:49.446Z,99859.72
2022-12-22T05:44:24.735Z,99849.53
2022-12-22T05:47:00.353Z,99851.75
2022-12-22T05:49:41.267Z,99850.91
2022-12-22T05:52:19.043Z,99840.88
2022-12-22T05:54:58.545Z,99835.19
2022-12-22T05:57:36.145Z,99829.72
2022-12-22T06:00:20.053Z,99837.44
2022-12-22T06:02:58.849Z,99849.31
2022-12-22T06:05:41.178Z,99848.72
2022-12-22T06:08:20.435Z,99845.22
2022-12-22T06:11:05.240Z,99842.88
2022-12-22T06:13:42.508Z,99845.03
2022-12-22T06:16:21.088Z,99844.22
2022-12-22T06:18:53.342Z,99851.38
2022-12-22T06:21:34.114Z,99846.84
2022-12-22T06:24:15.190Z,99846.38
2022-12-22T06:26:58.636Z,99847.66
2022-12-22T06:29:43.522Z,99851.22
2022-12-22T06:32:33.639Z,99854.25
2022-12-22T06:35:11.648Z,99852.38
2022-12-22T06:37:44.172Z,99860.97
2022-12-22T06:40:25.837Z,99862.84
2022-12-22T06:43:09.782Z,99858.22
2022-12-22T06:45:45.845Z,99862.69
2022-12-22T06:48:26.587Z,99860.41
2022-12-22T06:51:01.633Z,99865.28
2022-12-22T06:53:33.841Z,99873.50
2022-12-22T06:56:11.782Z,99877.88
2022-12-22T06:58:44.071Z,99873.66
2022-12-22T07:01:19.856Z,99866.00
2022-12-22T07:03:58.766Z,99865.47
2022-12-22T07:06:39.605Z,99876.47
2022-12-22T07:09:18.454Z,99883.34
2022-12-22T07:11:56.064Z,99882.75
2022-12-22T07:14:33.877Z,99882.53
2022-12-22T07:17:15.132Z,99880.03
2022-12-22T07:19:50.480Z,99872.69
2022-12-22T07:22:29.529Z,99872.34
2022-12-22T07:25:11.318Z,99870.53
2022-12-22T07:27:53.363Z,99871.00
2022-12-22T07:30:30.844Z,99870.34
2022-12-22T07:33:08.749Z,99877.72
2022-12-22T07:35:46.287Z,99880.44
2022-12-22T07:38:29.477Z,99888.47
2022-12-22T07:41:31.308Z,99882.41
2022-12-22T07:44:15.616Z,99880.13
2022-12-22T07:46:50.646Z,99877.72
2022-12-22T07:49:46.994Z,99879.06
2022-12-22T07:52:21.899Z,99878.75
2022-12-22T07:55:08.471Z,99879.38
2022-12-22T07:57:51.664Z,99881.72
2022-12-22T08:00:30.281Z,99880.91
2022-12-22T08:03:04.762Z,99875.94
2022-12-22T08:05:48.505Z,99869.81
2022-12-22T08:08:23.873Z,99869.84
2022-12-22T08:11:05.068Z,99865.50
2022-12-22T08:13:45.953Z,99874.13
2022-12-22T08:16:29.960Z,99869.53
2022-12-22T08:19:18.080Z,99865.66
2022-12-22T08:21:53.321Z,99863.91
2022-12-22T08:24:31.460Z,99861.09
2022-12-22T08:27:25.864Z,99857.63
2022-12-22T08:30:02.229Z,99861.16
2022-12-22T08:32:40.739Z,99854.69
2022-12-22T08:35:23.853Z,99849.06
2022-12-22T08:37:59.214Z,99846.72
2022-12-22T08:40:43.253Z,99855.56
2022-12-22T08:43:17.087Z,99856.09
2022-12-22T08:45:55.464Z,99849.09
2022-12-22T08:48:34.192Z,99854.25
2022-12-22T08:51:24.632Z,99860.41
2022-12-22T08:54:05.420Z,99872.72
2022-12-22T08:56:44.810Z,99870.38
2022-12-22T08:59:20.065Z,99863.31
2022-12-22T09:02:06.587Z,99868.47
2022-12-22T09:04:38.041Z,99858.63
2022-12-22T09:07:27.196Z,99847.44
2022-12-22T09:09:59.492Z,99837.94
2022-12-22T09:12:40.022Z,99844.63
2022-12-22T09:15:14.927Z,99837.66
2022-12-22T09:17:50.468Z,99834.28
2022-12-22T09:20:30.397Z,99840.63
2022-12-22T09:23:08.843Z,99843.31
2022-12-22T09:25:52.263Z,99847.97
2022-12-22T09:28:30.511Z,99838.63
2022-12-22T09:31:09.489Z,99834.56
2022-12-22T09:33:52.415Z,99838.81
2022-12-22T09:36:37.906Z,99824.75
2022-12-22T09:39:26.910Z,99817.91
2022-12-22T09:42:14.241Z,99833.91
2022-12-22T09:44:50.806Z,99818.50
2022-12-22T09:47:55.489Z,99820.66
2022-12-22T09:50:38.604Z,99818.97
2022-12-22T09:53:22.925Z,99816.91
2022-12-22T09:56:08.805Z,99816.78
2022-12-22T09:58:59.807Z,99807.44
2022-12-22T10:02:00.743Z,99798.91
2022-12-22T10:04:48.761Z,99802.56
2022-12-22T10:07:40.203Z,99796.69
2022-12-22T10:10:29.107Z,99794.22
2022-12-22T10:13:06.662Z,99796.03
2022-12-22T10:15:54.997Z,99792.16
2022-12-22T10:18:35.054Z,99804.94
2022-12-22T10:21:15.837Z,99807.69
2022-12-22T10:23:53.413Z,99800.09
2022-12-22T10:26:41.179Z,99805.75
2022-12-22T10:29:16.738Z,99787.06
2022-12-22T10:32:02.088Z,99781.47
2022-12-22T10:34:38.095Z,99782.59
2022-12-22T10:37:25.345Z,99782.97
2022-12-22T10:40:15.750Z,99769.06
2022-12-22T10:43:02.212Z,99777.84
2022-12-22T10:45:52.821Z,99779.16
2022-12-22T10:48:37.424Z,99764.66
2022-12-22T10:51:19.755Z,99761.16
2022-12-22T10:54:06.657Z,99743.91
2022-12-22T10:57:04.556Z,99741.13
2022-12-22T10:59:59.196Z,99753.41
2022-12-22T11:02:38.208Z,99767.00
2022-12-22T11:05:29.159Z,99749.78
2022-12-22T11:08:23.029Z,99750.03
2022-12-22T11:11:11.325Z,99744.09
2022-12-22T11:13:51.876Z,99741.66
2022-12-22T11:16:45.994Z,99733.88
2022-12-22T11:19:31.583Z,99741.44
2022-12-22T11:22:25.195Z,99736.56
2022-12-22T11:25:23.998Z,99737.75
2022-12-22T11:28:11.005Z,99740.06
2022-12-22T11:31:05.621Z,99740.53
2022-12-22T11:33:52.331Z,99744.22
2022-12-22T11:37:00.919Z,99740.34
2022-12-22T11:39:59.263Z,99733.03
2022-12-22T11:43:14.032Z,99727.41
2022-12-22T11:46:18.779Z,99731.66
2022-12-22T11:49:21.740Z,99737.75
2022-12-22T11:52:31.679Z,99736.19
2022-12-22T11:55:30.800Z,99738.28
2022-12-22T11:58:21.810Z,99735.34
2022-12-22T12:01:20.392Z,99740.25
2022-12-22T12:04:27.400Z,99737.75
2022-12-22T12:07:37.994Z,99738.78
2022-12-22T12:10:25.126Z,99733.88
2022-12-22T12:13:26.452Z,99731.94
2022-12-22T12:16:29.821Z,99719.56
2022-12-22T12:19:36.524Z,99715.31
2022-12-22T12:22:32.034Z,99722.81
2022-12-22T12:25:31.765Z,99724.75
2022-12-22T12:28:42.814Z,99735.44
2022-12-22T12:31:26.956Z,99741.72
2022-12-22T12:34:03.855Z,99737.47
2022-12-22T12:37:04.781Z,99766.38
2022-12-22T12:39:58.975Z,99781.59
2022-12-22T12:42:49.651Z,99785.34
2022-12-22T12:45:49.185Z,99777.97
2022-12-22T12:48:36.593Z,99770.78
2022-12-22T12:51:48.930Z,99749.84
2022-12-22T12:54:41.608Z,99764.16
2022-12-22T12:57:47.955Z,99761.84
2022-12-22T13:00:59.084Z,99751.63
2022-12-22T13:06:52.087Z,99747.91
2022-12-22T13:09:50.078Z,99758.69
2022-12-22T13:13:08.900Z,99762.84
2022-12-22T13:15:50.538Z,99737.03
2022-12-22T13:18:58.670Z,99694.84
2022-12-22T13:21:53.437Z,99661.91
2022-12-22T13:24:35.856Z,99667.34
2022-12-22T13:27:15.899Z,99684.75
2022-12-22T13:29:56.182Z,99668.81
2022-12-22T13:32:35.974Z,99669.88
2022-12-22T13:35:33.036Z,99671.53
2022-12-22T13:38:35.258Z,99675.84
2022-12-22T13:41:27.430Z,99669.50
2022-12-22T13:44:09.589Z,99661.94
2022-12-22T13:46:44.437Z,99654.16
2022-12-22T13:49:58.708Z,99655.47
2022-12-22T13:52:27.370Z,99644.50
2022-12-22T13:55:01.497Z,99649.91
2022-12-22T13:57:38.904Z,99634.13
2022-12-22T14:00:22.571Z,99645.75
2022-12-22T14:02:59.125Z,99639.16
2022-12-22T14:05:41.931Z,99633.28
2022-12-22T14:08:31.444Z,99640.22
2022-12-22T14:11:07.462Z,99642.91
2022-12-22T14:13:54.585Z,99645.16
2022-12-22T14:16:27.468Z,99651.03
2022-12-22T14:19:04.224Z,99663.63
2022-12-22T14:21:38.413Z,99666.31
2022-12-22T14:24:29.253Z,99677.19
2022-12-22T14:27:12.186Z,99664.00
2022-12-22T14:29:45.349Z,99659.88
2022-12-22T14:32:52.342Z,99655.19
2022-12-22T14:36:02.558Z,99673.97
2022-12-22T14:38:51.158Z,99678.94
2022-12-22T14:41:41.570Z,99681.66
2022-12-22T14:44:28.499Z,99671.31
2022-12-22T14:47:17.831Z,99676.69
2022-12-22T14:49:55.105Z,99662.63
2022-12-22T14:52:36.328Z,99673.13
2022-12-22T14:55:24.106Z,99659.00
2022-12-22T14:58:09.172Z,99654.50
2022-12-22T15:00:46.926Z,99664.72
2022-12-22T15:03:38.626Z,99662.44
2022-12-22T15:06:32.744Z,99660.19
2022-12-22T15:09:47.225Z,99662.88
2022-12-22T15:12:26.133Z,99662.94
2022-12-22T15:15:15.687Z,99666.00
2022-12-22T15:17:53.677Z,99670.59
2022-12-22T15:20:31.200Z,99666.94
2022-12-22T15:23:17.214Z,99663.81
2022-12-22T15:25:53.378Z,99649.25
2022-12-22T15:28:28.538Z,99646.47
2022-12-22T15:31:08.204Z,99651.88
2022-12-22T15:33:44.803Z,99649.91
2022-12-22T15:36:18.300Z,99649.38
2022-12-22T15:38:50.561Z,99636.97
2022-12-22T15:41:36.967Z,99628.59
2022-12-22T15:44:12.675Z,99637.97
2022-12-22T15:46:54.430Z,99639.31
2022-12-22T15:49:34.717Z,99637.97
2022-12-22T15:52:14.904Z,99645.09
2022-12-22T15:54:52.949Z,99646.50
2022-12-22T15:57:34.026Z,99648.31
2022-12-22T16:00:10.225Z,99642.31
2022-12-22T16:02:48.693Z,99638.81
2022-12-22T16:05:18.952Z,99627.47
2022-12-22T16:07:51.905Z,99634.66
2022-12-22T16:10:42.399Z,99644.66
2022-12-22T16:13:25.297Z,99642.16
2022-12-22T16:15:58.584Z,99642.34
2022-12-22T16:18:34.336Z,99643.69
2022-12-22T16:21:29.698Z,99653.41
2022-12-22T16:24:04.121Z,99639.72
2022-12-22T16:26:39.499Z,99643.91
2022-12-22T16:29:21.077Z,99663.56
2022-12-22T16:31:56.589Z,99664.41
2022-12-22T16:34:39.471Z,99657.06
2022-12-22T16:37:12.733Z,99647.09
2022-12-22T16:39:55.602Z,99645.72
2022-12-22T16:45:49.372Z,99635.16
2022-12-22T16:48:28.760Z,99636.91
2022-12-22T16:51:06.428Z,99634.09
2022-12-22T16:53:38.859Z,99645.13
2022-12-22T16:56:28.254Z,99646.59
2022-12-22T16:59:01.026Z,99655.63
2022-12-22T17:01:40.447Z,99656.13
2022-12-22T17:04:23.931Z,99662.84
2022-12-22T17:06:58.569Z,99663.31
2022-12-22T17:09:40.646Z,99660.94
2022-12-22T17:12:26.894Z,99658.94
2022-12-22T17:15:04.787Z,99661.94
2022-12-22T17:17:42.683Z,99661.44
2022-12-22T17:20:31.839Z,99658.53
2022-12-22T17:23:12.669Z,99658.75
2022-12-22T17:25:47.681Z,99664.75
2022-12-22T17:28:25.148Z,99654.16
2022-12-22T17:31:00.157Z,99659.31
2022-12-22T17:33:32.862Z,99657.66
2022-12-22T17:36:03.887Z,99656.69
2022-12-22T17:38:37.054Z,99644.31
2022-12-22T17:41:16.980Z,99646.38
2022-12-22T17:43:55.079Z,99649.19
2022-12-22T17:46:33.516Z,99649.34
2022-12-22T17:49:13.302Z,99656.69
2022-12-22T17:51:50.770Z,99662.75
2022-12-22T17:54:32.050Z,99647.75
2022-12-22T17:57:16.121Z,99644.38
2022-12-22T17:59:45.828Z,99641.75
2022-12-22T18:02:29.952Z,99642.13
2022-12-22T18:05:10.886Z,99639.16
2022-12-22T18:07:50.385Z,99644.31
2022-12-22T18:10:55.379Z,99638.81
2022-12-22T18:13:36.220Z,99632.34
2022-12-22T18:16:10.379Z,99636.59
2022-12-22T18:18:54.675Z,99631.84
2022-12-22T18:21:28.109Z,99629.16
2022-12-22T18:24:05.865Z,99619.31
2022-12-22T18:26:56.583Z,99621.34
2022-12-22T18:29:38.280Z,99618.25
2022-12-22T18:32:22.872Z,99622.94
2022-12-22T18:35:04.630Z,99628.47
2022-12-22T18:37:42.847Z,99629.31
2022-12-22T18:40:28.664Z,99629.22
2022-12-22T18:43:11.776Z,99633.97
2022-12-22T18:46:04.528Z,99632.97
2022-12-22T18:48:43.107Z,99631.44
2022-12-22T18:51:39.603Z,99625.97
2022-12-22T18:54:37.079Z,99619.13
2022-12-22T18:57:29.352Z,99614.09
2022-12-22T19:00:13.528Z,99600.88
2022-12-22T19:02:54.844Z,99597.25
2022-12-22T19:05:31.213Z,99599.19
2022-12-22T19:08:06.857Z,99600.00
2022-12-22T19:11:10.048Z,99603.78
2022-12-22T19:13:52.746Z,99611.56
2022-12-22T19:16:32.874Z,99598.44
2022-12-22T19:19:15.432Z,99580.63
2022-12-22T19:21:53.831Z,99588.88
2022-12-22T19:24:34.984Z,99578.72
2022-12-22T19:27:28.397Z,99576.25
2022-12-22T19:30:08.545Z,99573.28
2022-12-22T19:32:52.212Z,99562.03
2022-12-22T19:35:29.493Z,99562.88
2022-12-22T19:38:26.419Z,99552.22
2022-12-22T19:41:09.896Z,99534.59
2022-12-22T19:44:08.635Z,99524.97
2022-12-22T19:46:50.334Z,99527.84
2022-12-22T19:49:43.180Z,99514.13
2022-12-22T19:52:20.561Z,99516.16
2022-12-22T19:55:04.390Z,99525.94
2022-12-22T19:57:36.789Z,99528.53
2022-12-22T20:00:20.646Z,99522.47
2022-12-22T20:03:00.114Z,99526.13
2022-12-22T20:05:38.387Z,99525.97
2022-12-22T20:08:17.405Z,99527.63
2022-12-22T20:11:06.352Z,99546.06
2022-12-22T20:13:53.460Z,99546.06
2022-12-22T20:16:40.234Z,99535.88
2022-12-22T20:19:29.511Z,99536.78
2022-12-22T20:22:10.124Z,99532.09
2022-12-22T20:24:54.869Z,99539.56
2022-12-22T20:27:38.545Z,99538.19
2022-12-22T20:30:32.769Z,99531.81
2022-12-22T20:33:17.237Z,99521.88
2022-12-22T20:36:26.474Z,99532.38
2022-12-22T20:39:04.795Z,99526.91
2022-12-22T20:41:52.908Z,99532.38
2022-12-22T20:44:31.843Z,99520.56
2022-12-22T20:47:23.649Z,99528.66
2022-12-22T20:50:22.028Z,99531.34
2022-12-22T20:53:02.683Z,99526.47
2022-12-22T20:55:42.995Z,99527.31
2022-12-22T20:58:32.671Z,99522.50
2022-12-22T21:01:17.004Z,99530.63
2022-12-22T21:04:20.033Z,99529.41
2022-12-22T21:07:07.153Z,99520.09
2022-12-22T21:09:48.452Z,99526.47
2022-12-22T21:12:32.235Z,99524.44
2022-12-22T21:15:18.185Z,99524.72
2022-12-22T21:20:57.804Z,99527.69
2022-12-22T21:23:32.794Z,99523.91
2022-12-22T21:26:18.894Z,99525.94
2022-12-22T21:29:02.292Z,99528.13
2022-12-22T21:31:52.394Z,99532.09
2022-12-22T21:34:30.373Z,99528.06
2022-12-22T21:37:20.078Z,99536.16
2022-12-22T21:40:12.192Z,99528.34
2022-12-22T21:42:56.788Z,99529.34
2022-12-22T21:45:43.958Z,99509.78
2022-12-22T21:48:25.579Z,99509.41
2022-12-22T21:51:03.705Z,99510.06
2022-12-22T21:53:44.886Z,99519.44
2022-12-22T21:56:32.205Z,99526.09
2022-12-22T21:59:11.728Z,99524.44
2022-12-22T22:01:53.599Z,99503.66
2022-12-22T22:04:45.304Z,99498.97
2022-12-22T22:07:28.342Z,99507.66
2022-12-22T22:10:13.489Z,99503.03
2022-12-22T22:12:51.700Z,99504.88
2022-12-22T22:15:36.971Z,99512.25
2022-12-22T22:18:17.409Z,99507.00
2022-12-22T22:21:09.801Z,99510.59
2022-12-22T22:24:01.682Z,99513.28
2022-12-22T22:26:40.387Z,99510.88
2022-12-22T22:29:20.718Z,99510.22
2022-12-22T22:31:55.695Z,99503.38
2022-12-22T22:34:41.389Z,99494.66
2022-12-22T22:37:21.640Z,99497.06
2022-12-22T22:40:04.410Z,99490.94
2022-12-22T22:42:45.395Z,99498.44
2022-12-22T22:45:39.324Z,99498.16
2022-12-22T22:48:31.761Z,99482.19
2022-12-22T22:51:14.939Z,99487.81
2022-12-22T22:53:50.641Z,99481.81
2022-12-22T22:56:35.514Z,99484.28
2022-12-22T22:59:32.822Z,99479.69
2022-12-22T23:02:19.290Z,99480.59
2022-12-22T23:04:57.962Z,99473.69
2022-12-22T23:07:34.195Z,99475.97
2022-12-22T23:10:25.396Z,99479.28
2022-12-22T23:13:15.349Z,99474.16
2022-12-22T23:16:03.737Z,99473.69
2022-12-22T23:18:42.731Z,99473.06
2022-12-22T23:21:30.255Z,99474.97
2022-12-22T23:24:09.365Z,99473.78
2022-12-22T23:26:53.424Z,99468.28
2022-12-22T23:29:45.786Z,99457.28
2022-12-22T23:32:26.149Z,99454.44
2022-12-22T23:35:06.913Z,99459.22
2022-12-22T23:37:44.904Z,99462.56
2022-12-22T23:40:50.965Z,99465.78
2022-12-22T23:43:31.243Z,99463.00
2022-12-22T23:46:29.304Z,99451.91
2022-12-22T23:49:04.496Z,99457.00
2022-12-22T23:51:57.261Z,99456.72
2022-12-22T23:54:41.055Z,99468.34
2022-12-22T23:57:32.184Z,99458.56
